createdAt,value
2023-04-29T08:59:56.640Z,20.62
2023-04-29T09:00:56.750Z,21.48
2023-04-29T09:01:56.709Z,22.03
2023-04-29T09:02:56.744Z,22.48
2023-04-29T09:03:57.128Z,22.86
2023-04-29T09:04:56.988Z,23.25
2023-04-29T09:05:56.622Z,23.48
2023-04-29T09:06:56.691Z,23.48
2023-04-29T09:07:57.436Z,23.78
2023-04-29T09:08:58.635Z,24.04
2023-04-29T09:09:56.960Z,24.04
2023-04-29T09:10:56.511Z,24.06
2023-04-29T09:11:57.176Z,24.28
2023-04-29T09:12:56.930Z,24.40
2023-04-29T09:13:56.548Z,24.30
2023-04-29T09:14:59.725Z,24.55
2023-04-29T09:15:56.686Z,24.66
2023-04-29T09:16:56.497Z,24.87
2023-04-29T09:17:58.829Z,25.03
2023-04-29T09:18:56.714Z,25.11
2023-04-29T09:19:56.550Z,25.20
2023-04-29T09:20:58.223Z,25.28
2023-04-29T09:21:56.488Z,25.28
2023-04-29T09:22:56.403Z,25.37
2023-04-29T09:23:59.405Z,25.42
2023-04-29T09:24:56.698Z,25.52
2023-04-29T09:25:56.527Z,25.55
2023-04-29T09:26:58.016Z,25.57
2023-04-29T09:27:56.581Z,25.64
2023-04-29T09:28:56.330Z,25.68
2023-04-29T09:29:56.332Z,25.79
2023-04-29T09:30:56.373Z,25.82
2023-04-29T09:31:56.554Z,25.86
2023-04-29T09:32:56.744Z,25.90
2023-04-29T09:33:56.531Z,25.85
2023-04-29T09:34:56.684Z,25.83
2023-04-29T09:35:56.276Z,25.88
2023-04-29T09:36:56.768Z,25.93
2023-04-29T09:37:56.444Z,25.96
2023-04-29T09:38:57.062Z,25.90
2023-04-29T09:39:56.350Z,25.96
2023-04-29T09:40:59.632Z,26.00
2023-04-29T09:41:56.511Z,26.04
2023-04-29T09:42:56.169Z,26.01
2023-04-29T09:43:57.013Z,26.06
2023-04-29T09:44:56.196Z,26.03
2023-04-29T09:45:56.377Z,26.08
2023-04-29T09:46:57.269Z,26.08
2023-04-29T09:47:56.262Z,26.12
2023-04-29T09:48:56.278Z,26.07
2023-04-29T09:49:57.354Z,26.08
2023-04-29T09:50:56.386Z,26.13
2023-04-29T09:51:57.035Z,26.14
2023-04-29T09:52:58.536Z,26.16
2023-04-29T09:53:56.066Z,26.20
2023-04-29T09:54:56.387Z,26.19
2023-04-29T09:55:56.245Z,26.19
2023-04-29T09:56:56.184Z,26.20
2023-04-29T09:57:56.922Z,26.21
2023-04-29T09:58:56.451Z,26.20
2023-04-29T09:59:56.062Z,26.21
2023-04-29T10:00:56.088Z,26.23
2023-04-29T10:01:57.261Z,26.24
2023-04-29T10:02:56.319Z,26.21
2023-04-29T10:03:56.134Z,26.20
2023-04-29T10:04:56.326Z,26.04
2023-04-29T10:05:57.071Z,25.51
2023-04-29T10:06:56.133Z,25.57
2023-04-29T10:07:56.046Z,25.34
2023-04-29T10:08:56.342Z,25.54
2023-04-29T10:09:57.911Z,25.07
2023-04-29T10:10:55.991Z,25.07
2023-04-29T10:11:56.757Z,25.03
2023-04-29T10:12:58.035Z,24.99
2023-04-29T10:13:56.061Z,24.83
2023-04-29T10:14:56.181Z,24.64
2023-04-29T10:15:56.731Z,24.79
2023-04-29T10:16:56.093Z,25.03
2023-04-29T10:17:56.307Z,25.13
2023-04-29T10:18:57.006Z,25.21
2023-04-29T10:19:56.077Z,25.31
2023-04-29T10:20:56.072Z,25.38
2023-04-29T10:21:56.915Z,25.45
2023-04-29T10:22:56.064Z,25.54
2023-04-29T10:23:56.082Z,25.55
2023-04-29T10:24:56.535Z,25.58
2023-04-29T10:25:56.320Z,25.62
2023-04-29T10:26:56.159Z,25.65
2023-04-29T10:27:57.766Z,25.69
2023-04-29T10:28:56.016Z,25.69
2023-04-29T10:29:56.183Z,25.72
2023-04-29T10:30:56.507Z,25.73
2023-04-29T10:31:56.102Z,25.75
2023-04-29T10:32:56.094Z,25.75
2023-04-29T10:33:56.048Z,25.75
2023-04-29T10:34:56.023Z,25.73
2023-04-29T10:35:55.929Z,25.75
2023-04-29T10:36:55.937Z,25.78
2023-04-29T10:37:55.943Z,25.79
2023-04-29T10:38:56.220Z,25.79
2023-04-29T10:39:56.086Z,25.80
2023-04-29T10:40:56.209Z,25.80
2023-04-29T10:41:55.869Z,25.78
2023-04-29T10:42:56.363Z,25.73
2023-04-29T10:43:55.890Z,25.83
2023-04-29T10:44:55.943Z,25.86
2023-04-29T10:45:55.838Z,25.89
2023-04-29T10:46:56.079Z,25.89
2023-04-29T10:47:56.146Z,25.88
2023-04-29T10:48:55.890Z,25.86
2023-04-29T10:49:55.892Z,25.88
2023-04-29T10:50:55.895Z,25.85
2023-04-29T10:51:55.784Z,25.86
2023-04-29T10:52:55.817Z,25.90
2023-04-29T10:53:55.820Z,25.90
2023-04-29T10:54:55.858Z,25.95
2023-04-29T10:55:55.807Z,25.92
2023-04-29T10:56:55.930Z,25.90
2023-04-29T10:57:55.734Z,25.90
2023-04-29T10:58:55.990Z,25.88
